Latest Weather Observations for Redcliffe

IDQ60801

Issued at 11:32 am EST Tuesday 14 July 2020 (issued every 10 minutes, with the page automatically refreshed every 10 minutes)

About weather observations | Map of weather stations | Latest weather observations for QLD | Other Formats
Station Details ID: 040958 Name: REDCLIFFE Lat: -27.22 Lon: 153.09 Height: 12.6 m
Data from the previous 72 hours. | See also: Recent months at Redcliffe
Date/Time
EST
Temp
°C
App
Temp
°C
Dew
Point
°C
Rel
Hum
%
Delta-T
°C
Wind Press
QNH
hPa
Press
MSL
hPa
Rain since
9am
mm
Dir  Spd
km/h
Gust
km/h
Spd
kts
Gust
kts
14/11:30am 15.6 8.1 4.3 47 5.2 W 33 48 18 26 1016.3 1016.3 0.0
14/11:00am 15.2 8.7 4.6 49 4.9 W 28 50 15 27 1016.8 1016.8 0.0
14/10:30am 14.8 7.4 5.1 52 4.6 WSW 33 52 18 28 1016.6 1016.6 0.0
14/10:02am 14.5 6.8 5.3 54 4.3 WSW 35 56 19 30 1017.2 1017.2 0.0
14/10:00am 14.2 6.8 4.8 53 4.4 WSW 33 50 18 27 1016.9 1016.9 0.0
14/09:30am 13.9 6.2 5.3 56 4.0 WSW 35 59 19 32 1017.3 1017.3 0.0
14/09:19am 13.3 6.8 4.5 55 4.0 W 28 50 15 27 1017.2 1017.2 0.0
14/09:00am 13.2 7.1 4.9 57 3.8 W 26 37 14 20 1017.4 1017.4 0.2
14/08:46am 12.8 6.4 5.0 59 3.6 WSW 28 48 15 26 1017.7 1017.7 0.2
14/08:30am 12.5 6.4 4.7 59 3.6 WSW 26 39 14 21 1017.7 1017.7 0.2
14/08:00am 11.9 5.0 4.6 61 3.3 WSW 30 48 16 26 1017.7 1017.7 0.2
14/07:34am 11.6 5.1 4.6 62 3.2 WSW 28 46 15 25 1017.8 1017.8 0.2
14/07:30am 11.6 5.8 4.3 61 3.3 WSW 24 39 13 21 1017.8 1017.8 0.2
14/07:00am 11.4 4.8 4.2 61 3.2 WSW 28 46 15 25 1017.4 1017.4 0.2
14/06:55am 11.4 4.8 4.2 61 3.2 WSW 28 46 15 25 1017.4 1017.4 0.2
14/06:30am 11.3 5.4 4.1 61 3.2 WSW 24 37 13 20 1017.0 1017.0 0.2
14/06:00am 11.2 5.6 3.7 60 3.3 WSW 22 35 12 19 1017.1 1017.1 0.2
14/05:30am 11.2 6.1 4.0 61 3.2 WSW 20 33 11 18 1016.8 1016.8 0.2
14/05:00am 11.3 6.3 3.8 60 3.3 W 19 30 10 16 1016.5 1016.5 0.2
14/04:30am 10.4 6.6 3.9 64 2.9 W 13 26 7 14 1016.9 1016.9 0.2
14/04:00am 10.4 7.4 3.9 64 2.9 WNW 9 17 5 9 1016.9 1016.9 0.2
14/03:30am 10.8 7.9 4.5 65 2.8 WNW 9 22 5 12 1016.9 1016.9 0.2
14/03:00am 11.0 7.2 4.0 62 3.1 W 13 17 7 9 1017.1 1017.1 0.2
14/02:30am 10.6 5.7 3.9 63 3.0 W 19 28 10 15 1017.3 1017.3 0.2
14/02:00am 11.3 6.2 4.1 61 3.2 W 20 32 11 17 1017.3 1017.3 0.2
14/01:30am 11.5 6.4 4.3 61 3.2 W 20 32 11 17 1017.6 1017.6 0.2
14/01:00am 12.0 6.5 4.0 58 3.6 W 22 35 12 19 1017.9 1017.9 0.2
14/12:30am 12.1 6.2 4.1 58 3.6 WSW 24 37 13 20 1018.3 1018.3 0.2
14/12:00am 12.7 7.8 4.2 56 3.8 WSW 19 35 10 19 1018.4 1018.4 0.2
 
Date/Time
EST
Temp
°C
App
Temp
°C
Dew
Point
°C
Rel
Hum
%
Delta-T
°C
Wind Press
QNH
hPa
Press
MSL
hPa
Rain since
9am
mm
Dir  Spd
km/h
Gust
km/h
Spd
kts
Gust
kts
13/11:30pm 13.0 8.0 4.4 56 3.9 WSW 20 30 11 16 1018.5 1018.5 0.2
13/11:00pm 13.3 9.6 4.5 55 4.0 W 13 20 7 11 1018.7 1018.7 0.2
13/10:30pm 12.9 8.8 4.1 55 4.0 W 15 24 8 13 1018.9 1018.9 0.2
13/10:00pm 13.6 9.4 3.9 52 4.4 WSW 15 24 8 13 1018.9 1018.9 0.2
13/09:30pm 13.6 10.2 3.9 52 4.4 W 11 13 6 7 1019.0 1019.0 0.2
13/09:00pm 13.7 9.9 4.0 52 4.4 W 13 17 7 9 1019.0 1019.0 0.2
13/08:30pm 14.1 10.7 4.1 51 4.6 W 11 15 6 8 1019.1 1019.1 0.2
13/08:00pm 14.8 11.4 4.2 49 4.9 W 11 19 6 10 1018.8 1018.8 0.2
13/07:30pm 15.1 11.4 4.5 49 4.9 W 13 20 7 11 1018.6 1018.6 0.2
13/07:00pm 14.7 11.9 5.0 52 4.5 W 9 13 5 7 1018.1 1018.1 0.2
13/06:30pm 15.1 12.2 4.5 49 4.9 WSW 9 11 5 6 1017.7 1017.7 0.2
13/06:00pm 15.9 12.6 4.6 47 5.3 WSW 11 17 6 9 1017.3 1017.3 0.2
13/05:30pm 16.7 13.0 4.4 44 5.8 WSW 13 22 7 12 1016.8 1016.8 0.2
13/05:00pm 17.9 13.8 4.5 41 6.4 WSW 15 24 8 13 1016.3 1016.3 0.2
13/04:30pm 19.0 14.9 4.4 38 7.0 WSW 15 20 8 11 1016.0 1016.0 0.2
13/04:00pm 19.5 15.3 5.9 41 6.7 WSW 17 24 9 13 1015.7 1015.7 0.2
13/03:30pm 19.9 16.0 5.5 39 7.1 WSW 15 24 8 13 1015.6 1015.6 0.2
13/03:00pm 19.8 16.2 6.9 43 6.5 WSW 15 24 8 13 1015.5 1015.5 0.2
13/02:30pm 20.0 16.5 7.4 44 6.4 WSW 15 22 8 12 1015.3 1015.3 0.2
13/02:00pm 19.5 16.2 7.9 47 6.0 W 15 20 8 11 1015.5 1015.5 0.2
13/01:30pm 19.8 16.8 7.5 45 6.3 WSW 13 22 7 12 1015.5 1015.5 0.2
13/01:00pm 19.6 15.5 8.0 47 6.0 SW 19 28 10 15 1015.7 1015.7 0.0
13/12:30pm 20.2 17.0 8.5 47 6.1 SW 15 22 8 12 1015.8 1015.8 0.0
13/12:00pm 20.1 16.8 9.4 50 5.7 SW 17 24 9 13 1016.3 1016.3 0.0
13/11:30am 18.7 16.4 10.3 58 4.5 WSW 13 19 7 10 1016.6 1016.6 0.0
13/11:00am 17.5 15.4 12.4 72 2.8 SW 15 19 8 10 1017.2 1017.2 0.0
13/10:30am 16.3 14.3 12.7 79 2.0 WSW 15 22 8 12 1017.5 1017.5 0.0
13/10:00am 15.3 13.9 12.2 82 1.7 W 11 17 6 9 1017.7 1017.7 0.0
13/09:30am 14.9 13.3 12.9 88 1.1 WSW 13 17 7 9 1017.9 1017.9 0.0
13/09:00am 14.7 13.5 12.9 89 1.0 WSW 11 15 6 8 1017.9 1017.9 2.6
13/08:30am 14.6 14.4 13.6 94 0.6 W 7 11 4 6 1017.5 1017.5 2.6
13/08:00am 14.3 14.1 13.7 96 0.3 W 7 11 4 6 1017.4 1017.4 2.6
13/07:30am 14.2 14.1 13.9 98 0.2 W 7 9 4 5 1017.1 1017.1 2.6
13/07:00am 14.5 14.5 14.3 99 0.1 WSW 7 9 4 5 1016.8 1016.8 2.6
13/06:30am 14.5 14.7 14.3 99 0.1 WSW 6 9 3 5 1016.6 1016.6 2.6
13/06:00am 14.7 15.0 14.5 99 0.1 W 6 7 3 4 1016.5 1016.5 2.6
13/05:30am 14.8 15.0 14.6 99 0.1 SW 7 9 4 5 1016.3 1016.3 2.6
13/05:00am 14.9 15.3 14.7 99 0.1 W 6 9 3 5 1015.9 1015.9 2.6
13/04:30am 15.0 15.2 14.8 99 0.1 WSW 7 11 4 6 1015.7 1015.7 2.6
13/04:00am 15.1 15.0 14.9 99 0.1 WSW 9 11 5 6 1015.9 1015.9 2.6
13/03:30am 15.2 15.5 15.0 99 0.1 WSW 7 9 4 5 1015.8 1015.8 2.6
13/03:00am 15.2 15.5 15.0 99 0.1 WSW 7 9 4 5 1015.8 1015.8 2.6
13/02:30am 15.3 17.0 15.1 99 0.1 CALM 0 0 0 0 1015.8 1015.8 2.6
13/02:00am 15.4 17.1 15.2 99 0.1 CALM 0 0 0 0 1015.9 1015.9 2.6
13/01:30am 15.6 16.6 15.4 99 0.1 SSW 4 9 2 5 1016.6 1016.6 2.6
13/01:00am 15.5 17.2 15.3 99 0.1 CALM 0 0 0 0 1016.3 1016.3 2.6
13/12:30am 15.5 17.2 15.3 99 0.1 CALM 0 0 0 0 1016.5 1016.5 2.6
13/12:00am 15.6 16.2 15.4 99 0.1 NNW 6 7 3 4 1016.5 1016.5 2.6
 
Date/Time
EST
Temp
°C
App
Temp
°C
Dew
Point
°C
Rel
Hum
%
Delta-T
°C
Wind Press
QNH
hPa
Press
MSL
hPa
Rain since
9am
mm
Dir  Spd
km/h
Gust
km/h
Spd
kts
Gust
kts
12/11:30pm 15.7 17.5 15.4 98 0.2 CALM 0 0 0 0 1016.7 1016.7 2.6
12/11:00pm 15.8 15.8 15.3 97 0.3 NNE 9 11 5 6 1016.9 1016.9 2.2
12/10:30pm 15.7 16.1 15.2 97 0.3 N 7 9 4 5 1017.0 1017.0 2.2
12/10:00pm 15.8 17.2 15.5 98 0.2 SW 2 7 1 4 1017.2 1017.2 2.2
12/09:30pm 15.8 17.5 15.3 97 0.3 CALM 0 0 0 0 1016.9 1016.9 2.2
12/09:00pm 15.8 17.4 15.0 95 0.5 CALM 0 0 0 0 1016.9 1016.9 2.2
12/08:30pm 16.0 16.9 15.0 94 0.6 SW 4 7 2 4 1017.0 1017.0 2.0
12/08:00pm 16.2 16.3 15.4 95 0.5 SSW 9 13 5 7 1017.0 1017.0 0.6
12/07:30pm 16.3 18.0 15.3 94 0.6 CALM 0 0 0 0 1016.8 1016.8 0.6
12/07:00pm 16.4 18.1 15.3 93 0.6 CALM 0 0 0 0 1016.4 1016.4 0.4
12/06:30pm 16.4 18.0 14.9 91 0.9 CALM 0 0 0 0 1016.3 1016.3 0.4
12/06:00pm 16.5 16.5 15.2 92 0.8 SW 9 11 5 6 1016.0 1016.0 0.4
12/05:30pm 17.6 16.6 14.7 83 1.7 W 13 17 7 9 1015.9 1015.9 0.2
12/05:00pm 18.2 17.2 13.3 73 2.8 WNW 11 17 6 9 1015.4 1015.4 0.0
12/04:30pm 18.8 17.3 13.0 69 3.3 W 13 17 7 9 1015.1 1015.1 0.0
12/04:00pm 19.2 18.1 13.2 68 3.4 WNW 11 15 6 8 1015.0 1015.0 0.0
12/03:30pm 19.8 19.2 13.5 67 3.6 WSW 9 13 5 7 1014.8 1014.8 0.0
12/03:00pm 19.9 19.0 13.8 68 3.5 WSW 11 15 6 8 1014.6 1014.6 0.0
12/02:30pm 20.3 18.0 14.0 67 3.6 SW 19 26 10 14 1014.7 1014.7 0.0
12/02:00pm 20.9 18.9 15.0 69 3.5 SW 19 28 10 15 1014.6 1014.6 0.0
12/01:30pm 21.5 20.8 14.4 64 4.2 W 11 20 6 11 1014.8 1014.8 0.0
12/01:00pm 21.8 21.5 14.4 63 4.3 ENE 9 11 5 6 1015.0 1015.0 0.0
12/12:30pm 21.2 22.1 16.0 72 3.1 E 6 9 3 5 1015.2 1015.2 0.0
12/12:00pm 19.8 21.1 15.2 75 2.7 ESE 2 7 1 4 1015.3 1015.3 0.0
12/11:30am 19.9 20.3 15.3 75 2.7 ESE 7 9 4 5 1015.7 1015.7 0.0
12/11:00am 20.5 20.3 14.6 69 3.4 ENE 9 9 5 5 1016.1 1016.1 0.0
12/10:30am 20.5 20.7 14.8 70 3.3 E 7 9 4 5 1016.5 1016.5 0.0
12/10:00am 19.8 20.4 15.7 77 2.4 SE 7 7 4 4 1016.8 1016.8 0.0
12/09:30am 17.9 19.1 15.0 83 1.7 SE 2 9 1 5 1016.8 1016.8 0.0
12/09:00am 17.0 17.3 15.0 88 1.2 SE 7 7 4 4 1017.0 1017.0 0.0
12/08:30am 15.7 16.0 14.9 95 0.5 SW 7 9 4 5 1016.9 1016.9 0.0
12/08:00am 14.2 15.5 14.0 99 0.1 CALM 0 0 0 0 1016.9 1016.9 0.0
12/07:30am 13.6 14.3 13.4 99 0.1 WSW 2 7 1 4 1016.7 1016.7 0.0
12/07:00am 13.6 13.0 13.4 99 0.1 W 9 9 5 5 1016.3 1016.3 0.0
12/06:30am 13.4 14.0 13.1 98 0.2 W 2 11 1 6 1016.0 1016.0 0.0
12/06:00am 13.8 13.8 13.5 98 0.2 W 6 9 3 5 1015.6 1015.6 0.0
12/05:30am 14.0 13.1 13.8 99 0.1 WSW 11 13 6 7 1015.7 1015.7 0.0
12/05:00am 13.6 12.6 13.3 98 0.2 WSW 11 13 6 7 1015.5 1015.5 0.0
12/04:30am 13.7 13.4 13.2 97 0.3 WSW 7 11 4 6 1015.5 1015.5 0.0
12/04:00am 13.9 13.6 13.4 97 0.3 WSW 7 9 4 5 1015.7 1015.7 0.0
12/03:30am 14.4 14.3 13.9 97 0.3 W 7 9 4 5 1015.6 1015.6 0.0
12/03:00am 14.8 14.5 14.3 97 0.3 W 9 11 5 6 1015.8 1015.8 0.0
12/02:30am 14.8 14.1 14.3 97 0.3 WNW 11 13 6 7 1016.0 1016.0 0.0
12/02:00am 15.2 14.3 14.9 98 0.2 WNW 13 15 7 8 1016.2 1016.2 0.0
12/01:30am 15.4 15.4 15.1 98 0.2 WNW 9 11 5 6 1016.5 1016.5 0.0
12/01:00am 15.4 15.6 14.6 95 0.5 NW 7 11 4 6 1016.7 1016.7 0.0
12/12:30am 15.9 16.3 15.3 96 0.3 NW 7 11 4 6 1017.2 1017.2 0.0
12/12:00am 16.0 15.6 15.2 95 0.5 NW 11 15 6 8 1017.4 1017.4 0.0
 
Date/Time
EST
Temp
°C
App
Temp
°C
Dew
Point
°C
Rel
Hum
%
Delta-T
°C
Wind Press
QNH
hPa
Press
MSL
hPa
Rain since
9am
mm
Dir  Spd
km/h
Gust
km/h
Spd
kts
Gust
kts
11/11:30pm 16.4 16.1 15.4 94 0.6 NW 11 17 6 9 1017.5 1017.5 0.0
11/11:00pm 16.6 16.0 15.6 94 0.6 NW 13 19 7 10 1017.6 1017.6 0.0
11/10:30pm 16.7 16.1 15.6 93 0.6 NW 13 19 7 10 1017.6 1017.6 0.0
11/10:00pm 16.8 15.8 15.7 93 0.6 NW 15 19 8 10 1017.8 1017.8 0.0
11/09:30pm 16.9 16.7 15.8 93 0.6 NW 11 15 6 8 1017.8 1017.8 0.0
11/09:00pm 17.0 16.4 15.7 92 0.8 NNW 13 19 7 10 1017.8 1017.8 0.0
11/08:30pm 17.2 16.7 15.9 92 0.8 NNW 13 20 7 11 1017.9 1017.9 0.0
11/08:00pm 17.5 17.1 16.2 92 0.8 N 13 17 7 9 1017.9 1017.9 0.0
11/07:30pm 17.7 17.4 16.4 92 0.8 N 13 17 7 9 1018.0 1018.0 0.0
11/07:00pm 18.1 17.4 16.3 89 1.1 N 15 17 8 9 1017.8 1017.8 0.0
11/06:30pm 18.5 17.6 15.9 85 1.5 N 15 17 8 9 1017.6 1017.6 0.0
11/06:00pm 18.6 17.8 16.2 86 1.4 N 15 17 8 9 1017.3 1017.3 0.0
11/05:30pm 18.9 18.4 16.0 83 1.7 N 13 17 7 9 1017.2 1017.2 0.0
11/05:00pm 19.4 17.8 15.9 80 2.1 NNE 19 20 10 11 1017.0 1017.0 0.0
11/04:30pm 20.1 18.6 15.3 74 2.8 NE 17 20 9 11 1016.8 1016.8 0.0
11/04:00pm 20.5 19.4 16.3 77 2.5 NE 17 20 9 11 1016.9 1016.9 0.0
11/03:30pm 20.2 19.4 16.0 77 2.5 NE 15 17 8 9 1017.1 1017.1 0.0
11/03:00pm 20.1 20.9 15.9 77 2.5 ENE 6 9 3 5 1017.2 1017.2 0.0
11/02:30pm 19.7 20.0 16.0 79 2.2 E 9 11 5 6 1017.4 1017.4 0.0
11/02:00pm 20.4 20.1 16.4 78 2.4 E 13 15 7 8 1017.7 1017.7 0.0
11/01:30pm 20.4 19.9 16.0 76 2.6 E 13 15 7 8 1018.0 1018.0 0.0
11/01:00pm 20.5 20.2 16.5 78 2.4 E 13 15 7 8 1018.2 1018.2 0.0
11/12:30pm 21.4 21.2 16.6 74 2.9 E 13 15 7 8 1018.5 1018.5 0.0
11/12:00pm 21.2 21.9 16.0 72 3.1 E 7 9 4 5 1019.0 1019.0 0.0

Other formats

Comma delimited format used in spreadsheet applications
http://www.bom.gov.au/fwo/IDQ60801/IDQ60801.95591.axf

JavaScript Object Notation format (JSON) in row-major order
http://www.bom.gov.au/fwo/IDQ60801/IDQ60801.95591.json

Data quality

Most of these data are generated automatically and are frequently updated. Quality checks on data are not normally performed. It is possible for incorrect values to appear. Refer to information at About Latest Weather Observations and please check the disclaimer before using these data.